createdAt,value
2018-08-22T00:00:05.712Z,19.71
2018-08-22T00:02:34.187Z,19.70
2018-08-22T00:05:02.333Z,19.69
2018-08-22T00:07:30.623Z,19.68
2018-08-22T00:09:58.975Z,19.67
2018-08-22T00:12:27.679Z,19.66
2018-08-22T00:14:55.824Z,19.65
2018-08-22T00:17:24.279Z,19.64
2018-08-22T00:19:52.424Z,19.61
2018-08-22T00:22:20.653Z,19.57
2018-08-22T00:24:49.001Z,19.56
2018-08-22T00:27:17.631Z,19.55
2018-08-22T00:29:45.925Z,19.55
2018-08-22T00:32:14.703Z,19.54
2018-08-22T00:34:42.849Z,19.54
2018-08-22T00:37:11.274Z,19.53
2018-08-22T00:39:39.536Z,19.52
2018-08-22T00:42:07.684Z,19.50
2018-08-22T00:44:35.940Z,19.48
2018-08-22T00:47:05.091Z,19.46
2018-08-22T00:49:33.243Z,19.45
2018-08-22T00:52:01.615Z,19.45
2018-08-22T00:54:29.980Z,19.43
2018-08-22T00:56:58.391Z,19.37
2018-08-22T00:59:26.773Z,19.34
2018-08-22T01:01:55.132Z,19.31
2018-08-22T01:04:30.022Z,19.28
2018-08-22T01:06:58.360Z,19.28
2018-08-22T01:09:26.482Z,19.28
2018-08-22T01:11:54.915Z,19.27
2018-08-22T01:14:23.329Z,19.27
2018-08-22T01:16:57.956Z,19.26
2018-08-22T01:19:26.207Z,19.25
2018-08-22T01:21:54.910Z,19.19
2018-08-22T01:24:24.013Z,19.17
2018-08-22T01:26:52.988Z,19.14
2018-08-22T01:29:21.459Z,19.12
2018-08-22T01:31:49.989Z,19.11
2018-08-22T01:34:18.460Z,19.09
2018-08-22T01:36:46.596Z,19.06
2018-08-22T01:39:15.023Z,19.05
2018-08-22T01:41:43.357Z,19.02
2018-08-22T01:44:11.529Z,18.97
2018-08-22T01:46:39.671Z,18.93
2018-08-22T01:49:08.336Z,18.91
2018-08-22T01:51:36.477Z,18.88
2018-08-22T01:54:05.409Z,18.85
2018-08-22T01:56:33.957Z,18.84
2018-08-22T01:59:02.430Z,18.80
2018-08-22T02:01:30.567Z,18.79
2018-08-22T02:03:58.709Z,18.80
2018-08-22T02:06:27.052Z,18.77
2018-08-22T02:08:55.551Z,18.74
2018-08-22T02:11:23.744Z,18.71
2018-08-22T02:13:52.267Z,18.69
2018-08-22T02:16:20.448Z,18.68
2018-08-22T02:18:48.580Z,18.65
2018-08-22T02:21:17.185Z,18.62
2018-08-22T02:23:45.316Z,18.60
2018-08-22T02:26:13.445Z,18.60
2018-08-22T02:28:41.584Z,18.59
2018-08-22T02:31:10.001Z,18.55
2018-08-22T02:33:38.136Z,18.50
2018-08-22T02:36:06.553Z,18.50
2018-08-22T02:38:34.692Z,18.49
2018-08-22T02:41:02.893Z,18.47
2018-08-22T02:43:31.053Z,18.45
2018-08-22T02:45:59.213Z,18.43
2018-08-22T02:48:27.353Z,18.41
2018-08-22T02:50:55.524Z,18.40
2018-08-22T02:53:24.150Z,18.38
2018-08-22T02:55:52.292Z,18.35
2018-08-22T02:58:20.537Z,18.34
2018-08-22T03:00:49.109Z,18.32
2018-08-22T03:03:17.543Z,18.32
2018-08-22T03:05:45.672Z,18.31
2018-08-22T03:08:14.109Z,18.30
2018-08-22T03:10:42.453Z,18.29
2018-08-22T03:13:10.882Z,18.28
2018-08-22T03:15:39.041Z,18.28
2018-08-22T03:18:07.333Z,18.25
2018-08-22T03:20:35.475Z,18.25
2018-08-22T03:23:03.802Z,18.24
2018-08-22T03:25:31.937Z,18.20
2018-08-22T03:28:00.081Z,18.17
2018-08-22T03:30:28.211Z,18.13
2018-08-22T03:32:56.533Z,18.06
2018-08-22T03:35:25.013Z,18.07
2018-08-22T03:37:53.154Z,18.05
2018-08-22T03:40:21.864Z,17.99
2018-08-22T03:42:50.413Z,17.97
2018-08-22T03:45:18.550Z,17.95
2018-08-22T03:47:46.705Z,17.95
2018-08-22T03:50:15.105Z,17.93
2018-08-22T03:52:43.428Z,17.92
2018-08-22T03:55:11.561Z,17.91
2018-08-22T03:57:40.926Z,17.90
2018-08-22T04:00:09.822Z,17.88
2018-08-22T04:02:37.968Z,17.83
2018-08-22T04:05:06.721Z,17.80
2018-08-22T04:07:34.884Z,17.80
2018-08-22T04:10:03.377Z,17.79
2018-08-22T04:12:31.518Z,17.76
2018-08-22T04:15:00.143Z,17.74
2018-08-22T04:17:38.613Z,17.72
2018-08-22T04:20:08.697Z,17.70
2018-08-22T04:22:38.576Z,17.65
2018-08-22T04:25:08.089Z,17.61
2018-08-22T04:27:37.246Z,17.59
2018-08-22T04:30:06.754Z,17.58
2018-08-22T04:32:35.236Z,17.53
2018-08-22T04:35:03.368Z,17.49
2018-08-22T04:37:31.500Z,17.49
2018-08-22T04:40:00.157Z,17.47
2018-08-22T04:42:28.294Z,17.48
2018-08-22T04:44:56.850Z,17.44
2018-08-22T04:47:25.197Z,17.45
2018-08-22T04:49:53.905Z,17.46
2018-08-22T04:52:22.377Z,17.44
2018-08-22T04:54:50.520Z,17.41
2018-08-22T04:57:19.335Z,17.41
2018-08-22T04:59:47.497Z,17.40
2018-08-22T05:02:16.009Z,17.41
2018-08-22T05:04:44.145Z,17.42
2018-08-22T05:07:12.573Z,17.42
2018-08-22T05:09:41.041Z,17.43
2018-08-22T05:12:09.280Z,17.43
2018-08-22T05:14:37.440Z,17.44
2018-08-22T05:17:06.052Z,17.43
2018-08-22T05:19:34.193Z,17.42
2018-08-22T05:22:02.354Z,17.42
2018-08-22T05:24:30.510Z,17.43
2018-08-22T05:26:59.022Z,17.45
2018-08-22T05:29:27.172Z,17.48
2018-08-22T05:31:58.058Z,17.53
2018-08-22T05:34:26.345Z,17.54
2018-08-22T05:36:54.509Z,17.58
2018-08-22T05:39:22.945Z,17.61
2018-08-22T05:41:51.574Z,17.65
2018-08-22T05:44:19.718Z,17.70
2018-08-22T05:46:48.273Z,17.75
2018-08-22T05:49:16.713Z,17.83
2018-08-22T05:51:44.991Z,17.90
2018-08-22T05:54:13.435Z,17.99
2018-08-22T05:56:41.909Z,18.06
2018-08-22T05:59:10.471Z,18.13
2018-08-22T06:01:38.637Z,18.19
2018-08-22T06:04:07.430Z,18.25
2018-08-22T06:06:35.582Z,18.32
2018-08-22T06:09:04.437Z,18.38
2018-08-22T06:11:33.034Z,18.45
2018-08-22T06:14:01.206Z,18.54
2018-08-22T06:16:29.360Z,18.62
2018-08-22T06:18:57.885Z,18.70
2018-08-22T06:21:26.547Z,18.76
2018-08-22T06:23:55.267Z,18.83
2018-08-22T06:26:23.857Z,18.91
2018-08-22T06:28:52.005Z,18.99
2018-08-22T06:31:20.489Z,19.09
2018-08-22T06:33:48.688Z,19.21
2018-08-22T06:36:16.862Z,19.35
2018-08-22T06:38:45.421Z,19.50
2018-08-22T06:41:13.729Z,19.65
2018-08-22T06:43:41.894Z,19.80
2018-08-22T06:46:10.392Z,19.94
2018-08-22T06:48:38.574Z,20.09
2018-08-22T06:51:06.899Z,20.26
2018-08-22T06:53:35.412Z,20.43
2018-08-22T06:56:03.564Z,20.61
2018-08-22T06:58:32.041Z,20.81
2018-08-22T07:01:00.240Z,21.00
2018-08-22T07:03:28.385Z,21.23
2018-08-22T07:05:56.692Z,21.46
2018-08-22T07:08:25.054Z,21.68
2018-08-22T07:10:53.676Z,21.91
2018-08-22T07:13:21.830Z,22.14
2018-08-22T07:15:50.621Z,22.35
2018-08-22T07:18:19.409Z,22.62
2018-08-22T07:20:47.912Z,22.87
2018-08-22T07:23:17.271Z,23.11
2018-08-22T07:25:45.557Z,23.32
2018-08-22T07:28:13.707Z,23.50
2018-08-22T07:30:41.857Z,23.74
2018-08-22T07:33:10.373Z,23.96
2018-08-22T07:35:38.781Z,24.14
2018-08-22T07:38:07.468Z,24.31
2018-08-22T07:40:36.213Z,24.53
2018-08-22T07:43:06.169Z,24.77
2018-08-22T07:45:34.312Z,25.03
2018-08-22T07:48:02.821Z,25.27
2018-08-22T07:50:31.762Z,25.51
2018-08-22T07:53:03.861Z,25.74
2018-08-22T07:55:36.293Z,26.03
2018-08-22T07:58:06.683Z,26.30
2018-08-22T08:00:35.018Z,26.43
2018-08-22T08:03:03.620Z,26.58
2018-08-22T08:05:32.313Z,26.68
2018-08-22T08:08:00.637Z,26.80
2018-08-22T08:10:33.894Z,26.88
2018-08-22T08:13:03.364Z,27.08
2018-08-22T08:15:31.521Z,27.30
2018-08-22T08:18:00.059Z,27.41
2018-08-22T08:20:28.325Z,27.44
2018-08-22T08:22:56.473Z,27.50
2018-08-22T08:25:25.560Z,27.57
2018-08-22T08:27:54.110Z,27.65
2018-08-22T08:30:22.437Z,27.66
2018-08-22T08:32:50.597Z,27.76
2018-08-22T08:35:19.005Z,27.92
2018-08-22T08:37:47.159Z,28.14
2018-08-22T08:40:15.512Z,28.33
2018-08-22T08:42:43.693Z,28.50
2018-08-22T08:45:12.526Z,28.66
2018-08-22T08:47:40.768Z,28.85
2018-08-22T08:50:09.911Z,29.04
2018-08-22T08:52:38.229Z,29.22
2018-08-22T08:55:06.519Z,29.36
2018-08-22T08:57:34.876Z,29.53
2018-08-22T09:00:03.610Z,29.65
2018-08-22T09:02:31.962Z,29.84
2018-08-22T09:05:00.669Z,30.00
2018-08-22T09:07:28.981Z,30.12
2018-08-22T09:09:57.495Z,30.30
2018-08-22T09:12:25.797Z,30.38
2018-08-22T09:17:23.034Z,30.46
2018-08-22T09:19:51.333Z,30.49
2018-08-22T09:22:19.580Z,30.67
2018-08-22T09:24:48.156Z,30.82
2018-08-22T09:27:16.499Z,31.01
2018-08-22T09:29:44.655Z,31.19
2018-08-22T09:32:12.814Z,31.28
2018-08-22T09:34:41.077Z,31.32
2018-08-22T09:37:09.529Z,31.39
2018-08-22T09:39:37.729Z,31.53
2018-08-22T09:42:06.486Z,31.54
2018-08-22T09:44:34.797Z,31.62
2018-08-22T09:47:02.959Z,31.68
2018-08-22T09:49:31.210Z,31.59
2018-08-22T09:51:59.548Z,31.45
2018-08-22T09:54:27.739Z,31.42
2018-08-22T09:56:56.189Z,31.44
2018-08-22T09:59:24.616Z,31.54
2018-08-22T10:01:52.784Z,31.73
2018-08-22T10:04:21.242Z,31.83
2018-08-22T10:06:50.251Z,32.05
2018-08-22T10:09:24.318Z,32.24
2018-08-22T10:11:52.469Z,32.41
2018-08-22T10:14:20.815Z,32.55
2018-08-22T10:16:49.384Z,32.70
2018-08-22T10:19:17.539Z,32.79
2018-08-22T10:21:46.586Z,32.82
2018-08-22T10:24:15.513Z,32.80
2018-08-22T10:26:43.667Z,32.73
2018-08-22T10:29:11.806Z,32.55
2018-08-22T10:31:40.343Z,32.46
2018-08-22T10:34:09.636Z,32.32
2018-08-22T10:36:37.777Z,32.21
2018-08-22T10:39:08.621Z,32.23
2018-08-22T10:41:37.150Z,32.34
2018-08-22T10:44:06.111Z,32.54
2018-08-22T10:46:34.615Z,32.60
2018-08-22T10:49:03.281Z,32.64
2018-08-22T10:51:31.677Z,32.71
2018-08-22T10:54:00.124Z,32.86
2018-08-22T10:56:28.804Z,32.93
2018-08-22T10:58:56.962Z,33.06
2018-08-22T11:01:25.956Z,33.19
2018-08-22T11:03:54.189Z,33.20
2018-08-22T11:06:22.933Z,33.12
2018-08-22T11:08:51.601Z,33.08
2018-08-22T11:11:20.364Z,33.12
2018-08-22T11:13:48.533Z,33.09
2018-08-22T11:16:16.703Z,33.16
2018-08-22T11:18:45.679Z,33.32
2018-08-22T11:21:25.148Z,33.48
2018-08-22T11:24:04.716Z,33.63
2018-08-22T11:26:44.499Z,33.71
2018-08-22T11:29:24.321Z,33.66
2018-08-22T11:32:03.873Z,33.73
2018-08-22T11:34:42.380Z,33.58
2018-08-22T11:37:12.401Z,33.53
2018-08-22T11:39:42.308Z,33.64
2018-08-22T11:42:10.505Z,33.58
2018-08-22T11:44:39.377Z,33.41
2018-08-22T11:47:07.801Z,33.40
2018-08-22T11:49:36.053Z,33.46
2018-08-22T11:52:05.921Z,33.54
2018-08-22T11:54:34.322Z,33.45
2018-08-22T11:57:03.308Z,33.13
2018-08-22T11:59:32.141Z,33.24
2018-08-22T12:02:00.686Z,33.25
2018-08-22T12:04:29.333Z,33.24
2018-08-22T12:06:57.837Z,33.29
2018-08-22T12:09:26.630Z,33.40
2018-08-22T12:11:55.476Z,33.36
2018-08-22T12:14:23.990Z,33.13
2018-08-22T12:16:52.283Z,33.24
2018-08-22T12:19:21.264Z,33.24
2018-08-22T12:21:49.784Z,33.26
2018-08-22T12:24:18.970Z,33.49
2018-08-22T12:26:47.110Z,33.37
2018-08-22T12:29:15.603Z,33.30
2018-08-22T12:31:44.113Z,33.20
2018-08-22T12:34:12.245Z,33.03
2018-08-22T12:36:40.400Z,33.12
2018-08-22T12:39:09.533Z,33.30
2018-08-22T12:41:38.052Z,33.14
2018-08-22T12:44:06.818Z,33.02
2018-08-22T12:46:34.987Z,33.07
2018-08-22T12:49:04.236Z,33.07
2018-08-22T12:51:32.565Z,32.92
2018-08-22T12:54:01.403Z,32.94
2018-08-22T12:56:29.572Z,32.75
2018-08-22T12:58:57.744Z,32.54
2018-08-22T13:01:26.058Z,32.41
2018-08-22T13:03:54.215Z,32.54
2018-08-22T13:06:22.744Z,32.77
2018-08-22T13:08:51.253Z,32.70
2018-08-22T13:11:20.125Z,32.57
2018-08-22T13:13:48.968Z,32.64
2018-08-22T13:16:17.469Z,32.74
2018-08-22T13:18:45.621Z,32.76
2018-08-22T13:21:13.921Z,32.80
2018-08-22T13:23:42.073Z,32.92
2018-08-22T13:26:10.829Z,32.93
2018-08-22T13:28:39.004Z,32.74
2018-08-22T13:31:07.445Z,32.56
2018-08-22T13:33:35.758Z,32.50
2018-08-22T13:36:05.501Z,32.35
2018-08-22T13:38:34.142Z,32.23
2018-08-22T13:41:02.641Z,32.00
2018-08-22T13:43:30.811Z,32.01
2018-08-22T13:45:59.701Z,32.13
2018-08-22T13:48:28.160Z,32.26
2018-08-22T13:50:56.610Z,32.45
2018-08-22T13:53:25.804Z,32.62
2018-08-22T13:55:54.215Z,32.77
2018-08-22T13:58:22.879Z,32.69
2018-08-22T14:00:51.037Z,32.55
2018-08-22T14:03:19.312Z,32.48
2018-08-22T14:05:48.857Z,32.39
2018-08-22T14:08:17.298Z,32.29
2018-08-22T14:10:46.150Z,32.24
2018-08-22T14:13:14.765Z,32.26
2018-08-22T14:15:43.277Z,32.40
2018-08-22T14:18:11.860Z,32.42
2018-08-22T14:20:40.415Z,32.37
2018-08-22T14:23:09.158Z,32.15
2018-08-22T14:25:37.705Z,31.99
2018-08-22T14:28:06.735Z,31.94
2018-08-22T14:30:35.501Z,31.98
2018-08-22T14:33:03.662Z,31.96
2018-08-22T14:35:31.821Z,31.97
2018-08-22T14:38:00.007Z,31.97
2018-08-22T14:40:28.673Z,31.99
2018-08-22T14:42:56.905Z,31.94
2018-08-22T14:45:25.177Z,31.84
2018-08-22T14:47:54.250Z,31.72
2018-08-22T14:50:22.710Z,31.74
2018-08-22T14:52:50.872Z,31.74
2018-08-22T14:55:29.360Z,31.79
2018-08-22T14:57:57.536Z,31.78
2018-08-22T15:00:26.029Z,31.86
2018-08-22T15:02:54.648Z,31.75
2018-08-22T15:05:23.159Z,31.72
2018-08-22T15:07:51.801Z,31.66
2018-08-22T15:10:20.566Z,31.71
2018-08-22T15:12:48.920Z,31.81
2018-08-22T15:15:17.530Z,31.84
2018-08-22T15:17:46.002Z,31.80
2018-08-22T15:20:14.468Z,31.54
2018-08-22T15:22:43.275Z,31.37
2018-08-22T15:25:11.893Z,31.24
2018-08-22T15:27:40.050Z,31.11
2018-08-22T15:30:09.261Z,31.10
2018-08-22T15:32:38.015Z,31.08
2018-08-22T15:35:07.167Z,31.10
2018-08-22T15:37:35.573Z,31.06
2018-08-22T15:40:05.520Z,30.93
2018-08-22T15:42:34.646Z,30.95
2018-08-22T15:45:03.433Z,30.93
2018-08-22T15:47:31.584Z,30.86
2018-08-22T15:50:00.280Z,30.83
2018-08-22T15:52:28.806Z,30.88
2018-08-22T15:55:07.613Z,30.81
2018-08-22T15:57:51.110Z,30.74
2018-08-22T16:00:36.250Z,30.59
2018-08-22T16:03:06.686Z,30.57
2018-08-22T16:05:36.729Z,30.59
2018-08-22T16:08:07.071Z,30.62
2018-08-22T16:10:35.645Z,30.63
2018-08-22T16:13:04.008Z,30.52
2018-08-22T16:15:34.777Z,30.47
2018-08-22T16:18:05.663Z,30.43
2018-08-22T16:20:40.705Z,30.37
2018-08-22T16:23:09.610Z,30.35
2018-08-22T16:25:44.149Z,30.34
2018-08-22T16:28:12.981Z,30.31
2018-08-22T16:30:41.441Z,30.21
2018-08-22T16:33:10.221Z,30.10
2018-08-22T16:35:39.086Z,30.00
2018-08-22T16:38:10.229Z,29.90
2018-08-22T16:40:39.900Z,29.87
2018-08-22T16:43:08.428Z,29.78
2018-08-22T16:45:43.170Z,29.74
2018-08-22T16:48:12.748Z,29.75
2018-08-22T16:50:41.272Z,29.74
2018-08-22T16:53:09.581Z,29.69
2018-08-22T16:55:37.729Z,29.71
2018-08-22T16:58:06.712Z,29.57
2018-08-22T17:00:45.638Z,29.49
2018-08-22T17:03:13.784Z,29.35
2018-08-22T17:05:42.953Z,29.25
2018-08-22T17:08:11.597Z,29.22
2018-08-22T17:10:53.657Z,29.22
2018-08-22T17:13:28.396Z,29.18
2018-08-22T17:15:57.595Z,29.13
2018-08-22T17:18:26.982Z,29.05
2018-08-22T17:20:55.521Z,28.99
2018-08-22T17:23:24.214Z,28.96
2018-08-22T17:25:53.068Z,28.89
2018-08-22T17:28:28.579Z,28.83
2018-08-22T17:30:57.278Z,28.78
2018-08-22T17:33:31.820Z,28.70
2018-08-22T17:36:00.084Z,28.66
2018-08-22T17:38:28.306Z,28.60
2018-08-22T17:40:56.464Z,28.56
2018-08-22T17:43:24.846Z,28.50
2018-08-22T17:45:53.081Z,28.40
2018-08-22T17:48:22.140Z,28.27
2018-08-22T17:50:50.749Z,28.18
2018-08-22T17:53:18.955Z,28.13
2018-08-22T17:55:49.205Z,28.07
2018-08-22T17:58:17.688Z,27.98
2018-08-22T18:00:45.845Z,27.76
2018-08-22T18:03:14.178Z,27.62
2018-08-22T18:05:42.894Z,27.45
2018-08-22T18:08:11.698Z,27.37
2018-08-22T18:10:40.498Z,27.36
2018-08-22T18:13:10.463Z,27.27
2018-08-22T18:15:38.858Z,27.22
2018-08-22T18:18:08.233Z,27.18
2018-08-22T18:20:38.732Z,27.16
2018-08-22T18:23:07.625Z,27.13
2018-08-22T18:25:40.491Z,27.08
2018-08-22T18:28:09.796Z,27.05
2018-08-22T18:30:37.956Z,26.96
2018-08-22T18:33:06.444Z,26.87
2018-08-22T18:35:34.698Z,26.83
2018-08-22T18:38:02.876Z,26.76
2018-08-22T18:40:31.429Z,26.70
2018-08-22T18:43:01.828Z,26.62
2018-08-22T18:45:30.621Z,26.54
2018-08-22T18:48:16.038Z,26.43
2018-08-22T18:50:45.733Z,26.37
2018-08-22T18:53:15.587Z,26.23
2018-08-22T18:55:44.201Z,26.22
2018-08-22T18:58:12.653Z,26.20
2018-08-22T19:00:41.170Z,26.15
2018-08-22T19:03:09.332Z,26.11
2018-08-22T19:05:38.201Z,26.04
2018-08-22T19:08:10.416Z,25.99
2018-08-22T19:10:40.824Z,25.89
2018-08-22T19:13:11.856Z,25.80
2018-08-22T19:15:40.293Z,25.77
2018-08-22T19:18:09.764Z,25.73
2018-08-22T19:20:38.744Z,25.66
2018-08-22T19:23:07.477Z,25.62
2018-08-22T19:25:35.660Z,25.51
2018-08-22T19:28:06.053Z,25.42
2018-08-22T19:30:36.713Z,25.33
2018-08-22T19:33:09.916Z,25.27
2018-08-22T19:35:38.770Z,25.24
2018-08-22T19:38:07.632Z,25.23
2018-08-22T19:40:36.817Z,25.19
2018-08-22T19:43:06.625Z,25.14
2018-08-22T19:45:35.736Z,25.09
2018-08-22T19:48:03.893Z,25.04
2018-08-22T19:50:32.388Z,24.97
2018-08-22T19:53:00.563Z,24.91
2018-08-22T19:55:28.977Z,24.88
2018-08-22T19:57:57.825Z,24.80
2018-08-22T20:00:26.364Z,24.73
2018-08-22T20:02:55.457Z,24.63
2018-08-22T20:05:24.571Z,24.59
2018-08-22T20:07:52.741Z,24.51
2018-08-22T20:10:23.890Z,24.54
2018-08-22T20:12:54.888Z,24.49
2018-08-22T20:15:23.441Z,24.49
2018-08-22T20:17:54.767Z,24.44
2018-08-22T20:20:23.270Z,24.41
2018-08-22T20:22:53.217Z,24.37
2018-08-22T20:25:22.356Z,24.26
2018-08-22T20:27:50.530Z,24.20
2018-08-22T20:30:20.356Z,24.15
2018-08-22T20:32:58.585Z,24.07
2018-08-22T20:35:35.928Z,24.03
2018-08-22T20:38:06.552Z,23.99
2018-08-22T20:40:35.360Z,23.95
2018-08-22T20:43:03.544Z,23.93
2018-08-22T20:45:36.521Z,23.89
2018-08-22T20:48:08.661Z,23.82
2018-08-22T20:50:38.966Z,23.78
2018-08-22T20:53:09.049Z,23.79
2018-08-22T20:55:37.263Z,23.77
2018-08-22T20:58:06.262Z,23.74
2018-08-22T21:00:35.746Z,23.70
2018-08-22T21:03:04.323Z,23.67
2018-08-22T21:05:32.583Z,23.64
2018-08-22T21:08:00.899Z,23.55
2018-08-22T21:10:29.298Z,23.57
2018-08-22T21:12:57.685Z,23.52
2018-08-22T21:15:26.395Z,23.49
2018-08-22T21:18:01.243Z,23.44
2018-08-22T21:20:29.401Z,23.43
2018-08-22T21:22:58.115Z,23.39
2018-08-22T21:25:26.312Z,23.27
2018-08-22T21:27:54.987Z,23.16
2018-08-22T21:30:23.704Z,23.10
2018-08-22T21:32:52.688Z,23.07
2018-08-22T21:35:25.946Z,23.04
2018-08-22T21:37:58.964Z,22.97
2018-08-22T21:40:27.550Z,22.87
2018-08-22T21:42:55.717Z,22.78
2018-08-22T21:45:24.440Z,22.68
2018-08-22T21:48:08.142Z,22.67
2018-08-22T21:50:36.302Z,22.62
2018-08-22T21:53:05.375Z,22.53
2018-08-22T21:55:42.248Z,22.46
2018-08-22T21:58:11.872Z,22.36
2018-08-22T22:00:40.025Z,22.28
2018-08-22T22:03:10.296Z,22.23
2018-08-22T22:05:45.362Z,22.20
2018-08-22T22:08:13.913Z,22.13
2018-08-22T22:10:42.754Z,22.12
2018-08-22T22:13:11.989Z,22.07
2018-08-22T22:15:43.582Z,22.02
2018-08-22T22:18:12.071Z,21.96
2018-08-22T22:20:40.750Z,21.83
2018-08-22T22:23:09.317Z,21.73
2018-08-22T22:25:37.608Z,21.71
2018-08-22T22:28:06.275Z,21.67
2018-08-22T22:30:34.956Z,21.63
2018-08-22T22:33:03.284Z,21.65
2018-08-22T22:35:36.804Z,21.67
2018-08-22T22:38:08.702Z,21.62
2018-08-22T22:40:37.507Z,21.59
2018-08-22T22:43:10.557Z,21.54
2018-08-22T22:45:38.719Z,21.53
2018-08-22T22:48:07.525Z,21.53
2018-08-22T22:50:36.183Z,21.50
2018-08-22T22:53:06.257Z,21.45
2018-08-22T22:55:34.418Z,21.39
2018-08-22T22:58:03.640Z,21.30
2018-08-22T23:00:32.329Z,21.28
2018-08-22T23:03:07.116Z,21.27
2018-08-22T23:05:35.292Z,21.19
2018-08-22T23:08:03.693Z,21.19
2018-08-22T23:10:32.178Z,21.18
2018-08-22T23:13:00.697Z,21.16
2018-08-22T23:15:30.119Z,21.11
2018-08-22T23:17:59.405Z,21.11
2018-08-22T23:20:36.634Z,21.14
2018-08-22T23:23:22.084Z,21.10
2018-08-22T23:25:50.554Z,21.08
2018-08-22T23:28:19.034Z,21.01
2018-08-22T23:30:47.836Z,21.00
2018-08-22T23:33:16.226Z,20.93
2018-08-22T23:35:44.705Z,20.94
2018-08-22T23:38:18.656Z,20.89
2018-08-22T23:40:48.289Z,20.89
2018-08-22T23:43:16.817Z,20.87
2018-08-22T23:45:57.616Z,20.84
2018-08-22T23:48:31.385Z,20.80
2018-08-22T23:51:01.402Z,20.76
2018-08-22T23:53:37.088Z,20.72
2018-08-22T23:56:16.065Z,20.75
2018-08-22T23:58:45.657Z,20.74
